Time;durP1;ratioP1;P1;durP2;ratioP2;P2;SDS_P1;SDS_P2;PMS_P1;PMS_P2;Temp;Humidity;BMP_temperature;BMP_pressure;BME280_temperature;BME280_humidity;BME280_pressure;Samples;Min_cycle;Max_cycle;Signal;HPM_P1;HPM_P2
2023/01/06 00:01:07;;;;;;;54.58;22.10;;;9.90;99.90;;;;;;5015885;28;20079;-80
2023/01/06 00:03:34;;;;;;;46.83;20.75;;;9.80;99.90;;;;;;5033365;28;20081;-80
2023/01/06 00:06:02;;;;;;;45.43;20.50;;;10.20;99.90;;;;;;5033044;28;20049;-80
2023/01/06 00:08:28;;;;;;;42.17;20.40;;;9.90;99.90;;;;;;5033063;28;20367;-80
2023/01/06 00:10:54;;;;;;;42.23;20.47;;;10.00;99.90;;;;;;5033257;28;20052;-80
2023/01/06 00:13:21;;;;;;;43.83;20.60;;;9.90;99.90;;;;;;5033194;28;20324;-80
2023/01/06 00:15:46;;;;;;;38.83;20.20;;;9.90;99.90;;;;;;5033227;28;20045;-80
2023/01/06 00:18:12;;;;;;;41.30;20.60;;;9.90;99.90;;;;;;5033150;28;20049;-79
2023/01/06 00:20:38;;;;;;;42.40;19.42;;;;;;;;;;5033158;28;20469;-80
2023/01/06 00:23:04;;;;;;;46.50;20.20;;;9.90;99.90;;;;;;5033131;28;20441;-79
2023/01/06 00:25:29;;;;;;;37.65;17.95;;;10.00;99.90;;;;;;5033144;28;20042;-80
2023/01/06 00:27:55;;;;;;;34.20;18.15;;;10.60;99.90;;;;;;5033125;28;20095;-80
2023/01/06 00:30:21;;;;;;;36.85;18.27;;;9.90;99.90;;;;;;5032978;28;20473;-79
2023/01/06 00:32:47;;;;;;;33.60;17.73;;;10.10;99.90;;;;;;5033086;28;20085;-79
2023/01/06 00:35:12;;;;;;;30.80;17.50;;;10.00;99.90;;;;;;5033081;28;20112;-79
2023/01/06 00:37:38;;;;;;;32.78;17.17;;;10.00;99.90;;;;;;5032880;28;20072;-79
2023/01/06 00:40:04;;;;;;;33.33;16.50;;;10.00;99.90;;;;;;5033512;28;20048;-80
2023/01/06 00:42:30;;;;;;;32.08;16.15;;;10.00;99.90;;;;;;5033281;28;20045;-80
2023/01/06 00:44:55;;;;;;;35.13;17.25;;;10.00;99.90;;;;;;5018515;28;20049;-79
2023/01/06 00:47:21;;;;;;;33.00;17.05;;;9.90;99.90;;;;;;5036927;28;20038;-80
2023/01/06 00:49:47;;;;;;;29.63;15.30;;;10.00;99.90;;;;;;5019245;28;20478;-80
2023/01/06 00:52:13;;;;;;;28.13;14.82;;;10.00;99.90;;;;;;5036077;28;20121;-80
2023/01/06 00:54:38;;;;;;;28.70;14.63;;;9.90;99.90;;;;;;5036345;28;20148;-80
2023/01/06 00:57:06;;;;;;;29.25;13.75;;;10.60;99.90;;;;;;5036376;28;20549;-79
2023/01/06 00:59:32;;;;;;;33.20;14.93;;;10.10;99.90;;;;;;5036180;28;20087;-80
2023/01/06 01:01:58;;;;;;;26.03;13.47;;;10.00;99.90;;;;;;5036540;28;20080;-80
2023/01/06 01:04:24;;;;;;;24.60;13.02;;;10.00;99.90;;;;;;5036302;28;20077;-80
2023/01/06 01:06:52;;;;;;;23.80;11.90;;;10.00;99.90;;;;;;5018508;28;20165;-79
2023/01/06 01:09:29;;;;;;;23.15;11.68;;;10.10;99.90;;;;;;5036444;28;20053;-80
2023/01/06 01:12:13;;;;;;;;;;;10.10;99.90;;;;;;5019157;28;20045;-80
2023/01/06 01:14:49;;;;;;;19.35;10.30;;;10.60;99.90;;;;;;5036479;28;19932;-80
2023/01/06 01:17:20;;;;;;;24.05;10.48;;;10.10;99.90;;;;;;5018879;28;20061;-80
2023/01/06 01:19:48;;;;;;;18.50;9.93;;;10.10;99.90;;;;;;5036693;28;20056;-80
2023/01/06 01:22:14;;;;;;;15.55;9.40;;;10.00;99.90;;;;;;5035987;28;20116;-80
2023/01/06 01:24:41;;;;;;;17.63;9.38;;;10.00;99.90;;;;;;5018064;28;20521;-80
2023/01/06 01:27:07;;;;;;;15.73;9.10;;;10.20;99.90;;;;;;5018098;28;20438;-80
2023/01/06 01:29:33;;;;;;;17.15;8.80;;;10.50;99.90;;;;;;5035797;28;20049;-80
2023/01/06 01:31:58;;;;;;;13.75;8.20;;;9.90;99.90;;;;;;5035300;28;20045;-80
2023/01/06 01:34:25;;;;;;;15.30;8.63;;;10.00;99.90;;;;;;5035569;28;20045;-80
2023/01/06 01:36:52;;;;;;;15.57;8.00;;;10.00;99.90;;;;;;5035636;28;20049;-80
2023/01/06 01:39:20;;;;;;;20.35;8.50;;;10.20;99.90;;;;;;5035593;28;20037;-80
2023/01/06 01:41:47;;;;;;;15.00;8.07;;;10.00;99.90;;;;;;5035434;28;20490;-80
2023/01/06 01:44:49;;;;;;;18.13;7.97;;;10.20;99.90;;;;;;5035484;28;20045;-81
2023/01/06 01:47:20;;;;;;;12.57;8.13;;;10.00;99.90;;;;;;5035400;28;20085;-80
2023/01/06 01:49:48;;;;;;;18.33;8.05;;;10.00;99.90;;;;;;5035328;28;20041;-80
2023/01/06 01:52:15;;;;;;;15.50;8.15;;;10.00;99.90;;;;;;5001733;28;20104;-80
2023/01/06 01:54:42;;;;;;;16.08;8.20;;;10.00;99.90;;;;;;5016667;28;20050;-80
2023/01/06 01:57:19;;;;;;;13.13;8.10;;;10.00;99.90;;;;;;5035149;28;20057;-80
2023/01/06 01:59:46;;;;;;;15.07;8.13;;;9.90;99.90;;;;;;5035069;28;20049;-80
2023/01/06 02:02:14;;;;;;;18.35;8.05;;;9.90;99.90;;;;;;5035205;28;20053;-80
2023/01/06 02:04:43;;;;;;;12.23;7.80;;;9.90;99.90;;;;;;5035011;28;20037;-80
2023/01/06 02:07:09;;;;;;;12.80;7.20;;;9.90;99.90;;;;;;5017309;28;20060;-80
2023/01/06 02:09:50;;;;;;;11.73;7.75;;;9.90;99.90;;;;;;5035309;28;20041;-80
2023/01/06 02:12:15;;;;;;;12.80;7.03;;;9.90;99.90;;;;;;5035406;28;20085;-81
2023/01/06 02:14:41;;;;;;;16.08;7.10;;;9.90;99.90;;;;;;5000978;28;20486;-80
2023/01/06 02:17:28;;;;;;;12.60;6.78;;;9.90;99.90;;;;;;5035102;28;20052;-80
2023/01/06 02:20:18;;;;;;;12.52;6.00;;;10.00;99.90;;;;;;5034873;28;20132;-80
2023/01/06 02:22:50;;;;;;;11.60;6.88;;;10.00;99.90;;;;;;5018145;28;20053;-80
2023/01/06 02:25:30;;;;;;;10.18;6.55;;;10.00;99.90;;;;;;5034969;28;20056;-80
2023/01/06 02:28:15;;;;;;;15.70;6.95;;;10.00;99.90;;;;;;5035249;28;20111;-80
2023/01/06 02:31:39;;;;;;;8.73;6.30;;;9.90;99.90;;;;;;5034812;28;20490;-80
2023/01/06 02:34:29;;;;;;;14.88;7.07;;;10.00;99.90;;;;;;4945761;29;20063;-80
2023/01/06 02:37:08;;;;;;;12.48;5.72;;;9.90;99.90;;;;;;5031970;28;20382;-80
2023/01/06 02:39:34;;;;;;;10.10;5.53;;;9.90;99.90;;;;;;5034866;28;20152;-81
2023/01/06 02:42:02;;;;;;;9.82;5.63;;;10.00;99.90;;;;;;5034363;28;20450;-80
2023/01/06 02:44:59;;;;;;;13.18;6.07;;;10.30;99.90;;;;;;5034323;28;20056;-80
2023/01/06 02:47:51;;;;;;;10.75;6.07;;;10.00;99.90;;;;;;4986769;28;20453;-80
2023/01/06 02:50:35;;;;;;;13.02;6.35;;;10.00;99.90;;;;;;5034708;28;20053;-80
2023/01/06 02:53:09;;;;;;;10.85;6.13;;;10.00;99.90;;;;;;5034161;28;20165;-80
2023/01/06 02:55:55;;;;;;;12.00;6.38;;;10.10;99.90;;;;;;5000084;28;20471;-80
2023/01/06 02:58:28;;;;;;;11.05;6.78;;;10.00;99.90;;;;;;5034164;28;20056;-80
2023/01/06 03:01:03;;;;;;;8.13;6.00;;;10.00;99.90;;;;;;5034099;28;20077;-80
2023/01/06 03:03:33;;;;;;;12.88;6.68;;;10.00;99.90;;;;;;5034088;28;20057;-80
2023/01/06 03:06:06;;;;;;;11.75;7.03;;;10.30;99.90;;;;;;5033371;28;20042;-79
2023/01/06 03:08:32;;;;;;;12.43;7.28;;;10.00;99.90;;;;;;5034065;28;20038;-80
2023/01/06 03:11:00;;;;;;;11.25;7.68;;;10.00;99.90;;;;;;5033966;28;20406;-80
2023/01/06 03:13:53;;;;;;;9.63;7.88;;;10.00;99.90;;;;;;5033923;28;20176;-80
2023/01/06 03:16:19;;;;;;;16.55;9.13;;;10.00;99.90;;;;;;5033915;28;20064;-80
2023/01/06 03:18:47;;;;;;;15.02;9.57;;;10.00;99.90;;;;;;5033782;28;20045;-80
2023/01/06 03:21:17;;;;;;;16.15;11.57;;;10.00;99.90;;;;;;5033795;28;20045;-80
2023/01/06 03:23:44;;;;;;;15.15;10.32;;;10.20;99.90;;;;;;5034038;28;20038;-80
2023/01/06 03:26:10;;;;;;;15.88;12.02;;;10.30;99.90;;;;;;5016304;28;20045;-80
2023/01/06 03:28:36;;;;;;;17.23;11.60;;;9.90;99.90;;;;;;5033629;28;20057;-80
2023/01/06 03:31:11;;;;;;;20.17;13.83;;;9.90;99.90;;;;;;5016086;28;20056;-80
2023/01/06 03:33:59;;;;;;;17.92;12.55;;;9.90;99.90;;;;;;5016861;28;20096;-80
2023/01/06 03:36:43;;;;;;;20.10;13.27;;;9.90;99.90;;;;;;5015801;28;20060;-80
2023/01/06 03:39:17;;;;;;;21.77;12.95;;;9.80;99.90;;;;;;5015921;28;20049;-80
2023/01/06 03:45:02;;;;;;;19.27;12.35;;;9.80;99.90;;;;;;4990328;28;20053;-80
2023/01/06 03:47:45;;;;;;;18.00;12.70;;;9.80;99.90;;;;;;5033611;28;20095;-80
2023/01/06 03:50:27;;;;;;;17.40;12.98;;;9.90;99.90;;;;;;5033285;28;20050;-80
2023/01/06 03:53:15;;;;;;;18.63;12.13;;;10.20;99.90;;;;;;5033354;28;20095;-80
2023/01/06 03:55:48;;;;;;;20.17;12.27;;;9.80;99.90;;;;;;5033703;28;20060;-80
2023/01/06 03:58:15;;;;;;;19.20;12.77;;;9.90;99.90;;;;;;5032954;28;20046;-80
2023/01/06 04:00:42;;;;;;;18.98;12.15;;;9.80;99.90;;;;;;5033372;28;20129;-80
2023/01/06 04:03:11;;;;;;;16.07;11.20;;;9.80;99.90;;;;;;5016006;28;20425;-80
2023/01/06 04:05:36;;;;;;;18.35;11.43;;;9.90;99.90;;;;;;5033138;28;20080;-80
2023/01/06 04:08:02;;;;;;;17.52;11.60;;;9.80;99.90;;;;;;5033328;28;20442;-80
2023/01/06 04:10:28;;;;;;;18.60;10.88;;;9.80;99.90;;;;;;5033353;28;20055;-80
2023/01/06 04:12:53;;;;;;;16.17;10.38;;;9.80;99.90;;;;;;5015614;28;20045;-80
2023/01/06 04:15:21;;;;;;;14.73;10.43;;;9.80;99.90;;;;;;5015665;28;20125;-80
2023/01/06 04:17:48;;;;;;;12.77;9.55;;;9.90;99.90;;;;;;5033675;28;20046;-80
2023/01/06 04:20:28;;;;;;;14.70;9.98;;;10.60;99.90;;;;;;5037020;28;20045;-80
2023/01/06 04:22:56;;;;;;;14.30;9.20;;;9.80;99.90;;;;;;5037257;28;20140;-80
2023/01/06 04:25:22;;;;;;;13.93;9.00;;;9.60;99.90;;;;;;5036991;28;20038;-80
2023/01/06 04:27:48;;;;;;;12.35;8.82;;;9.80;99.90;;;;;;5036850;28;20049;-80
2023/01/06 04:30:14;;;;;;;14.38;8.43;;;9.80;99.90;;;;;;5019259;28;20056;-80
2023/01/06 04:32:39;;;;;;;12.13;8.13;;;9.80;99.90;;;;;;5019565;28;20374;-80
2023/01/06 04:35:06;;;;;;;9.30;7.85;;;9.80;99.90;;;;;;5033850;28;20060;-81
2023/01/06 04:37:32;;;;;;;10.65;7.82;;;9.80;99.90;;;;;;5017096;28;20129;-81
2023/01/06 04:39:57;;;;;;;8.53;7.17;;;9.80;99.90;;;;;;5017010;28;20049;-80
2023/01/06 04:42:23;;;;;;;11.68;7.28;;;9.80;99.90;;;;;;5016785;28;20549;-80
2023/01/06 04:44:48;;;;;;;12.18;6.90;;;9.80;99.90;;;;;;5016740;28;20038;-80
2023/01/06 04:47:14;;;;;;;10.60;6.55;;;9.80;99.90;;;;;;5016973;28;20041;-80
2023/01/06 04:49:40;;;;;;;13.18;6.93;;;9.80;99.90;;;;;;5016756;28;20132;-80
2023/01/06 04:52:07;;;;;;;9.68;6.88;;;10.20;99.90;;;;;;5018467;28;20157;-80
2023/01/06 04:54:33;;;;;;;10.35;6.25;;;9.90;99.90;;;;;;5039730;28;20040;-79
2023/01/06 04:56:59;;;;;;;7.20;5.60;;;9.80;99.90;;;;;;5040515;28;20038;-80
2023/01/06 04:59:24;;;;;;;6.40;5.07;;;9.80;99.90;;;;;;5040958;28;20036;-80
2023/01/06 05:01:50;;;;;;;8.02;5.80;;;9.80;99.90;;;;;;5022837;28;20025;-80
2023/01/06 05:04:15;;;;;;;6.60;5.28;;;10.30;99.90;;;;;;5036631;28;20073;-80
2023/01/06 05:06:41;;;;;;;8.68;4.93;;;9.80;99.90;;;;;;5039761;28;20076;-80
2023/01/06 05:09:07;;;;;;;7.55;5.25;;;9.80;99.90;;;;;;5018825;28;20042;-80
2023/01/06 05:11:32;;;;;;;9.68;5.45;;;9.80;99.90;;;;;;5016590;28;20582;-80
2023/01/06 05:13:58;;;;;;;10.50;6.03;;;9.90;99.90;;;;;;4998957;28;20042;-81
2023/01/06 05:16:32;;;;;;;7.97;5.50;;;9.90;99.90;;;;;;5017002;28;20097;-80
2023/01/06 05:18:57;;;;;;;7.30;5.30;;;9.80;99.90;;;;;;5016361;28;20128;-81
2023/01/06 05:21:25;;;;;;;7.15;5.40;;;9.80;99.90;;;;;;5016262;28;20074;-80
2023/01/06 05:23:51;;;;;;;9.70;5.07;;;9.80;99.90;;;;;;5016105;28;20057;-81
2023/01/06 05:26:20;;;;;;;6.73;4.73;;;9.90;99.90;;;;;;5015918;28;20112;-80
2023/01/06 05:28:46;;;;;;;8.73;5.15;;;9.90;99.90;;;;;;5015686;28;20284;-80
2023/01/06 05:31:12;;;;;;;9.30;4.75;;;10.10;99.90;;;;;;5015932;28;20145;-80
2023/01/06 05:33:38;;;;;;;8.00;4.47;;;9.90;99.90;;;;;;5016200;28;20069;-80
2023/01/06 05:36:06;;;;;;;6.63;4.80;;;9.80;99.90;;;;;;5026873;28;20184;-80
2023/01/06 05:38:32;;;;;;;6.65;4.60;;;9.90;99.90;;;;;;5035729;28;20288;-80
2023/01/06 05:40:58;;;;;;;8.27;4.63;;;9.90;99.90;;;;;;5035593;28;20111;-81
2023/01/06 05:43:24;;;;;;;6.50;4.18;;;9.90;99.90;;;;;;5035741;28;20103;-80
2023/01/06 05:45:51;;;;;;;9.57;4.22;;;10.10;99.90;;;;;;5035544;28;20045;-80
2023/01/06 05:48:16;;;;;;;6.82;4.40;;;9.90;99.90;;;;;;5035757;28;20128;-80
2023/01/06 05:50:42;;;;;;;5.97;4.10;;;9.90;99.90;;;;;;5035642;28;20133;-80
2023/01/06 05:53:07;;;;;;;7.13;3.80;;;9.90;99.90;;;;;;5035370;28;20041;-80
2023/01/06 05:55:33;;;;;;;6.47;4.05;;;9.90;99.90;;;;;;5017800;28;20037;-80
2023/01/06 05:57:59;;;;;;;5.65;3.67;;;10.00;99.90;;;;;;5035741;28;20420;-82
2023/01/06 06:00:25;;;;;;;7.53;3.72;;;9.90;99.90;;;;;;5035092;28;20088;-81
2023/01/06 06:02:50;;;;;;;8.70;3.35;;;9.90;99.90;;;;;;5017856;28;20493;-83
2023/01/06 06:05:16;;;;;;;4.93;3.47;;;9.90;99.90;;;;;;5001631;28;20049;-83
2023/01/06 06:07:42;;;;;;;6.13;3.35;;;9.90;99.90;;;;;;5035155;28;20124;-83
2023/01/06 06:10:08;;;;;;;5.75;3.30;;;9.90;99.90;;;;;;5001291;28;20505;-82
2023/01/06 06:12:34;;;;;;;4.32;3.35;;;9.90;99.90;;;;;;5035561;28;20393;-82
2023/01/06 06:15:00;;;;;;;3.97;2.90;;;10.00;99.90;;;;;;5018305;28;20409;-83
2023/01/06 06:17:26;;;;;;;7.68;3.20;;;10.00;99.90;;;;;;5001565;28;20049;-83
2023/01/06 06:19:51;;;;;;;5.35;3.30;;;9.90;99.90;;;;;;5017216;28;20052;-83
2023/01/06 06:22:17;;;;;;;5.38;2.85;;;10.00;99.90;;;;;;5017310;28;20112;-82
2023/01/06 06:24:42;;;;;;;6.28;3.03;;;9.90;99.90;;;;;;5034666;28;20049;-82
2023/01/06 06:27:08;;;;;;;4.43;2.75;;;9.90;99.90;;;;;;5017094;28;20077;-83
2023/01/06 06:29:34;;;;;;;6.70;3.08;;;9.90;99.90;;;;;;5001145;28;20048;-85
2023/01/06 06:31:59;;;;;;;4.95;2.65;;;9.90;99.90;;;;;;5017352;28;20457;-83
2023/01/06 06:34:25;;;;;;;7.50;2.90;;;9.90;99.90;;;;;;5034390;28;20087;-82
2023/01/06 06:36:51;;;;;;;7.13;2.88;;;9.90;99.90;;;;;;5017097;28;20060;-83
2023/01/06 06:39:17;;;;;;;4.53;2.78;;;9.90;99.90;;;;;;5017054;28;20049;-85
2023/01/06 06:41:43;;;;;;;6.17;2.93;;;9.90;99.90;;;;;;5016545;28;20367;-86
2023/01/06 06:44:08;;;;;;;3.95;3.25;;;9.90;99.90;;;;;;5016805;28;20291;-84
2023/01/06 06:46:34;;;;;;;9.25;3.40;;;9.90;99.90;;;;;;5034375;28;20041;-82
2023/01/06 06:48:59;;;;;;;6.95;3.13;;;9.90;99.90;;;;;;5034361;28;20049;-84
2023/01/06 06:51:25;;;;;;;8.07;3.45;;;9.80;99.90;;;;;;5016772;28;20410;-85
2023/01/06 06:53:51;;;;;;;5.32;3.05;;;9.80;99.90;;;;;;5016809;28;20080;-85
2023/01/06 06:56:19;;;;;;;5.53;3.33;;;9.80;99.90;;;;;;5000404;28;20114;-84
2023/01/06 06:58:45;;;;;;;5.80;3.38;;;9.80;99.90;;;;;;5034137;28;20099;-82
2023/01/06 07:01:12;;;;;;;5.85;3.00;;;9.70;99.90;;;;;;5016533;28;20041;-83
2023/01/06 07:03:38;;;;;;;6.82;3.47;;;9.80;99.90;;;;;;5016609;28;20049;-84
2023/01/06 07:06:06;;;;;;;7.45;3.75;;;9.70;99.90;;;;;;5034093;28;20131;-83
2023/01/06 07:08:33;;;;;;;5.45;3.60;;;9.70;99.90;;;;;;5016703;28;20529;-83
2023/01/06 07:10:59;;;;;;;10.25;3.80;;;9.70;99.90;;;;;;5034286;28;20493;-83
2023/01/06 07:13:24;;;;;;;11.10;4.20;;;9.60;99.90;;;;;;5000490;28;20390;-82
2023/01/06 07:15:50;;;;;;;9.52;3.80;;;9.60;99.90;;;;;;5017176;28;20179;-80
2023/01/06 07:18:17;;;;;;;5.57;3.95;;;9.60;99.90;;;;;;5034144;28;20045;-85
2023/01/06 07:20:47;;;;;;;7.20;3.90;;;9.70;99.90;;;;;;5016512;28;20482;-80
2023/01/06 07:23:13;;;;;;;8.32;4.20;;;9.50;99.90;;;;;;5016403;28;20042;-81
2023/01/06 07:25:39;;;;;;;7.80;4.22;;;9.50;99.90;;;;;;5016225;28;20091;-81
2023/01/06 07:28:06;;;;;;;6.43;4.35;;;9.50;99.90;;;;;;5000163;28;20037;-81
2023/01/06 07:30:33;;;;;;;7.95;4.43;;;10.00;99.90;;;;;;5033720;28;20477;-81
2023/01/06 07:32:58;;;;;;;;;;;9.50;99.90;;;;;;5034133;28;20100;-81
2023/01/06 07:35:24;;;;;;;6.40;4.78;;;9.50;99.90;;;;;;5033333;28;19921;-81
2023/01/06 07:37:49;;;;;;;7.72;4.90;;;9.40;99.90;;;;;;5033628;28;20089;-81
2023/01/06 07:40:16;;;;;;;12.38;5.25;;;9.40;99.90;;;;;;5033666;28;20129;-82
2023/01/06 07:42:42;;;;;;;7.57;4.90;;;9.50;99.90;;;;;;5033482;28;20049;-83
2023/01/06 07:45:09;;;;;;;8.73;4.78;;;9.50;99.90;;;;;;5016006;28;20064;-82
2023/01/06 07:47:35;;;;;;;7.18;4.70;;;9.50;99.90;;;;;;5015887;28;20057;-82
2023/01/06 07:50:01;;;;;;;6.25;4.80;;;9.40;99.90;;;;;;5033563;28;20037;-83
2023/01/06 07:52:27;;;;;;;9.48;5.55;;;9.50;99.90;;;;;;5015828;28;20163;-82
2023/01/06 07:54:52;;;;;;;10.82;5.05;;;9.50;99.90;;;;;;5019716;28;20124;-82
2023/01/06 07:57:18;;;;;;;6.10;4.85;;;9.50;99.90;;;;;;5037568;28;20056;-82
2023/01/06 07:59:43;;;;;;;7.20;5.35;;;9.50;99.90;;;;;;5019925;28;20041;-82
2023/01/06 08:02:10;;;;;;;7.63;5.07;;;9.70;99.90;;;;;;5020045;28;20131;-82
2023/01/06 08:04:36;;;;;;;6.40;5.30;;;9.60;99.90;;;;;;5019570;28;20480;-83
2023/01/06 08:07:02;;;;;;;6.57;5.03;;;9.50;99.90;;;;;;5019617;28;20105;-79
2023/01/06 08:09:27;;;;;;;6.93;5.50;;;9.60;99.90;;;;;;5037340;28;20050;-82
2023/01/06 08:11:53;;;;;;;8.55;5.38;;;9.60;99.90;;;;;;5037245;28;20071;-84
2023/01/06 08:14:19;;;;;;;10.20;5.85;;;9.60;99.90;;;;;;5019742;28;20064;-81
2023/01/06 08:16:45;;;;;;;6.82;5.35;;;9.60;99.90;;;;;;5037380;28;20401;-82
2023/01/06 08:19:11;;;;;;;7.35;6.07;;;9.70;99.90;;;;;;5021816;28;20088;-81
2023/01/06 08:21:36;;;;;;;7.10;5.63;;;9.60;99.90;;;;;;5019434;28;20046;-83
2023/01/06 08:24:03;;;;;;;11.80;6.50;;;9.60;99.90;;;;;;5036975;28;20049;-83
2023/01/06 08:26:29;;;;;;;7.30;5.30;;;9.60;99.90;;;;;;5019358;28;20201;-79
2023/01/06 08:28:54;;;;;;;6.18;5.03;;;9.60;99.90;;;;;;5036990;28;20095;-80
2023/01/06 08:31:21;;;;;;;5.93;4.82;;;9.80;99.90;;;;;;5037118;28;20052;-84
2023/01/06 08:33:48;;;;;;;5.00;4.45;;;9.70;99.90;;;;;;5019215;28;20124;-82
2023/01/06 08:36:16;;;;;;;6.32;3.97;;;9.70;99.90;;;;;;5036881;28;20587;-82
2023/01/06 08:38:42;;;;;;;4.93;4.00;;;9.70;99.90;;;;;;5019197;28;20466;-82
2023/01/06 08:41:08;;;;;;;4.22;3.42;;;10.10;99.90;;;;;;5037030;28;20049;-81
2023/01/06 08:43:34;;;;;;;4.93;3.50;;;10.20;99.90;;;;;;5034841;28;20488;-81
2023/01/06 08:46:02;;;;;;;4.95;2.45;;;9.70;99.90;;;;;;5035960;28;20093;-81
2023/01/06 08:48:28;;;;;;;3.75;1.92;;;9.70;99.90;;;;;;5017883;28;20129;-80
2023/01/06 08:50:54;;;;;;;9.60;1.85;;;9.60;99.90;;;;;;5036163;28;20395;-81
2023/01/06 08:53:20;;;;;;;5.50;1.95;;;9.60;99.90;;;;;;5018445;28;20048;-79
2023/01/06 08:55:45;;;;;;;7.82;1.80;;;9.60;99.90;;;;;;5036300;28;20041;-82
2023/01/06 08:58:11;;;;;;;4.80;1.70;;;9.50;99.90;;;;;;5035842;28;20080;-80
2023/01/06 09:00:40;;;;;;;2.25;1.40;;;10.10;99.90;;;;;;5036211;28;20049;-81
2023/01/06 09:03:05;;;;;;;5.68;1.80;;;9.90;99.90;;;;;;5018581;28;20486;-81
2023/01/06 09:05:31;;;;;;;3.90;1.75;;;9.40;99.90;;;;;;5035595;28;20104;-81
2023/01/06 09:07:57;;;;;;;5.35;1.88;;;10.10;99.90;;;;;;5017583;28;20052;-85
2023/01/06 09:10:22;;;;;;;2.88;1.50;;;9.30;99.90;;;;;;5018328;28;20470;-81
2023/01/06 09:12:48;;;;;;;5.10;1.50;;;9.30;99.90;;;;;;5034283;28;20118;-82
2023/01/06 09:15:14;;;;;;;2.47;1.70;;;9.30;99.90;;;;;;5034672;28;20497;-82
2023/01/06 09:17:40;;;;;;;3.75;1.63;;;9.10;99.90;;;;;;5035838;28;20095;-83
2023/01/06 09:20:06;;;;;;;5.68;1.50;;;9.30;99.90;;;;;;5039119;28;20047;-81
2023/01/06 09:22:31;;;;;;;4.17;1.60;;;9.30;99.90;;;;;;5035344;28;20527;-83
2023/01/06 09:24:57;;;;;;;4.05;1.70;;;9.30;99.90;;;;;;5034951;28;20054;-81
2023/01/06 09:27:23;;;;;;;3.97;1.40;;;9.30;99.90;;;;;;5035263;28;20077;-83
2023/01/06 09:29:48;;;;;;;3.90;1.50;;;9.30;99.90;;;;;;5018216;28;20072;-82
2023/01/06 09:32:14;;;;;;;5.22;1.63;;;9.30;99.90;;;;;;5017852;28;20080;-81
2023/01/06 09:34:40;;;;;;;5.03;1.30;;;9.30;99.90;;;;;;5018011;28;20541;-81
2023/01/06 09:37:06;;;;;;;4.28;1.40;;;9.30;99.90;;;;;;5017139;28;20050;-82
2023/01/06 09:39:31;;;;;;;3.78;1.50;;;9.30;99.90;;;;;;5035495;28;20065;-85
2023/01/06 09:41:57;;;;;;;8.20;1.90;;;9.30;99.90;;;;;;5017447;28;20050;-84
2023/01/06 09:44:30;;;;;;;5.07;1.73;;;9.30;99.90;;;;;;5035437;28;20049;-82
2023/01/06 09:46:57;;;;;;;6.35;1.77;;;9.30;99.90;;;;;;5035230;28;20037;-81
2023/01/06 09:49:46;;;;;;;4.22;1.55;;;9.40;99.90;;;;;;5035340;28;20085;-83
2023/01/06 09:52:24;;;;;;;6.63;1.73;;;9.40;99.90;;;;;;5017753;28;20089;-83
2023/01/06 09:55:04;;;;;;;7.15;1.92;;;9.30;99.90;;;;;;5018238;28;20454;-85
2023/01/06 09:57:40;;;;;;;4.38;1.52;;;9.40;99.90;;;;;;5001570;28;20437;-82
2023/01/06 10:00:46;;;;;;;5.13;1.52;;;9.40;99.90;;;;;;5034730;28;20041;-83
2023/01/06 10:03:18;;;;;;;8.32;1.65;;;9.80;99.90;;;;;;5016629;28;20140;-82
2023/01/06 10:05:49;;;;;;;5.60;1.60;;;9.60;99.90;;;;;;5016472;28;20367;-84
2023/01/06 10:08:38;;;;;;;5.93;1.50;;;9.50;99.90;;;;;;5034508;28;20132;-83
2023/01/06 10:11:08;;;;;;;4.85;1.40;;;9.40;99.90;;;;;;4980893;28;20053;-86
2023/01/06 10:14:12;;;;;;;8.60;1.92;;;9.50;99.90;;;;;;5017569;28;20068;-86
2023/01/06 10:17:07;;;;;;;5.38;1.58;;;9.50;99.90;;;;;;5016484;28;20100;-80
2023/01/06 10:20:03;;;;;;;11.23;1.83;;;9.50;99.90;;;;;;5034684;28;20045;-81
2023/01/06 10:22:56;;;;;;;10.30;1.92;;;9.50;99.90;;;;;;5001862;28;20137;-82
2023/01/06 10:25:31;;;;;;;6.65;2.03;;;9.50;99.90;;;;;;5016981;28;20052;-82
2023/01/06 10:28:18;;;;;;;6.68;1.73;;;9.50;99.90;;;;;;5034542;28;20081;-80
2023/01/06 10:30:47;;;;;;;5.88;1.50;;;9.50;99.90;;;;;;5034341;28;20053;-82
2023/01/06 10:33:34;;;;;;;7.88;1.50;;;9.80;99.90;;;;;;5016571;28;20171;-81
2023/01/06 10:36:00;;;;;;;11.30;1.60;;;10.10;99.90;;;;;;5034505;28;20076;-79
2023/01/06 10:38:43;;;;;;;5.47;1.65;;;9.50;99.90;;;;;;5034351;28;20045;-81
2023/01/06 10:41:31;;;;;;;9.82;2.10;;;9.50;99.90;;;;;;5034235;28;20049;-82
2023/01/06 10:43:57;;;;;;;;;;;9.50;99.90;;;;;;5034816;28;20071;-83
2023/01/06 10:46:29;;;;;;;6.35;1.45;;;9.50;99.90;;;;;;5034268;28;19920;-82
2023/01/06 10:48:55;;;;;;;6.03;1.60;;;9.50;99.90;;;;;;5033982;28;20042;-80
2023/01/06 10:51:27;;;;;;;8.63;1.52;;;9.90;99.90;;;;;;5000088;28;20402;-81
2023/01/06 10:53:55;;;;;;;10.85;1.77;;;9.60;99.90;;;;;;5034086;28;20057;-82
2023/01/06 10:56:21;;;;;;;6.35;1.48;;;9.60;99.90;;;;;;5000104;28;20128;-81
2023/01/06 10:59:01;;;;;;;7.93;1.70;;;9.60;99.90;;;;;;5033913;28;20137;-83
2023/01/06 11:01:31;;;;;;;6.53;1.48;;;9.70;99.90;;;;;;5017135;28;20041;-83
2023/01/06 11:04:11;;;;;;;5.93;1.73;;;9.70;99.90;;;;;;5033747;28;20041;-81
2023/01/06 11:06:41;;;;;;;7.93;1.70;;;9.90;99.90;;;;;;5033804;28;20041;-82
2023/01/06 11:09:23;;;;;;;5.70;1.88;;;9.80;99.90;;;;;;5033516;28;20049;-82
2023/01/06 11:11:51;;;;;;;11.70;1.85;;;9.90;99.90;;;;;;5016832;28;20038;-83
2023/01/06 11:14:19;;;;;;;9.55;2.10;;;10.00;99.90;;;;;;5000616;28;20173;-80
2023/01/06 11:16:55;;;;;;;9.10;1.67;;;10.80;99.90;;;;;;5044719;28;20069;-85
2023/01/06 11:19:43;;;;;;;4.82;1.50;;;10.00;99.90;;;;;;5033935;28;20129;-85
2023/01/06 11:22:44;;;;;;;7.40;1.85;;;10.10;99.90;;;;;;5016993;28;20425;-81
2023/01/06 11:25:19;;;;;;;8.18;2.15;;;10.00;99.90;;;;;;4921855;29;20043;-84
2023/01/06 11:28:09;;;;;;;8.95;2.15;;;10.00;99.90;;;;;;4988670;28;20470;-83
2023/01/06 11:30:56;;;;;;;6.30;2.13;;;10.30;99.90;;;;;;5016377;28;20100;-83
2023/01/06 11:33:25;;;;;;;10.82;2.03;;;10.10;99.90;;;;;;5000708;28;20045;-83
2023/01/06 11:35:52;;;;;;;9.80;2.10;;;10.10;99.90;;;;;;5034002;28;20053;-80
2023/01/06 11:38:20;;;;;;;7.35;1.70;;;10.20;99.90;;;;;;5016194;28;20092;-85
2023/01/06 11:40:48;;;;;;;6.22;1.85;;;10.20;99.90;;;;;;5013769;28;20041;-81
2023/01/06 11:43:24;;;;;;;6.47;1.98;;;10.30;99.90;;;;;;5015487;28;20046;-84
2023/01/06 11:46:06;;;;;;;9.90;2.33;;;10.30;99.90;;;;;;4999656;28;20045;-79
2023/01/06 11:48:52;;;;;;;9.85;2.22;;;10.30;99.90;;;;;;5015602;28;20064;-85
2023/01/06 11:51:39;;;;;;;4.30;1.60;;;10.90;99.90;;;;;;5033266;28;20096;-81
2023/01/06 11:54:24;;;;;;;8.63;2.25;;;10.30;99.90;;;;;;5015992;28;20087;-80
2023/01/06 11:56:57;;;;;;;7.93;1.77;;;10.20;99.90;;;;;;5033115;28;20073;-85
2023/01/06 11:59:25;;;;;;;6.63;1.95;;;10.20;99.90;;;;;;5015772;28;20049;-82
2023/01/06 12:01:53;;;;;;;6.85;2.03;;;10.10;99.90;;;;;;5033065;28;20430;-82
2023/01/06 12:04:28;;;;;;;4.72;1.98;;;10.20;99.90;;;;;;5015838;28;20053;-82
2023/01/06 12:07:19;;;;;;;7.55;1.85;;;10.20;99.90;;;;;;5015366;28;20050;-81
2023/01/06 12:09:48;;;;;;;10.10;1.70;;;10.20;99.90;;;;;;5032728;28;20053;-82
2023/01/06 12:12:26;;;;;;;6.88;1.63;;;10.40;99.90;;;;;;5015704;28;20046;-82
2023/01/06 12:14:52;;;;;;;6.32;1.50;;;10.20;99.90;;;;;;5032753;28;20104;-83
2023/01/06 12:17:52;;;;;;;11.63;2.15;;;10.20;99.90;;;;;;5032590;28;20513;-83
2023/01/06 12:20:50;;;;;;;6.22;1.90;;;10.20;99.90;;;;;;5034159;28;20049;-81
2023/01/06 12:23:25;;;;;;;7.13;1.98;;;10.10;99.90;;;;;;4999447;28;20045;-80
2023/01/06 12:25:55;;;;;;;6.85;1.75;;;10.30;99.90;;;;;;5001874;28;20045;-80
2023/01/06 12:28:30;;;;;;;8.15;1.98;;;10.00;99.90;;;;;;5016174;28;20045;-81
2023/01/06 12:31:17;;;;;;;6.88;1.83;;;9.90;99.90;;;;;;5033577;28;20056;-79
2023/01/06 12:33:51;;;;;;;13.77;2.13;;;9.90;99.90;;;;;;5033562;28;20103;-83
2023/01/06 12:36:43;;;;;;;7.03;1.50;;;9.90;99.90;;;;;;5033124;28;20494;-84
2023/01/06 12:39:41;;;;;;;4.63;1.50;;;9.80;99.90;;;;;;5003345;28;20072;-80
2023/01/06 12:42:21;;;;;;;6.45;1.63;;;9.80;99.90;;;;;;4986023;28;20053;-80
2023/01/06 12:44:51;;;;;;;7.32;1.98;;;9.80;99.90;;;;;;5019548;28;20053;-80
2023/01/06 12:47:38;;;;;;;8.43;2.10;;;9.70;99.90;;;;;;5036560;28;20390;-83
2023/01/06 12:50:34;;;;;;;6.55;1.77;;;9.80;99.90;;;;;;5019866;28;20132;-79
2023/01/06 12:53:29;;;;;;;6.72;1.80;;;9.80;99.90;;;;;;5036383;28;20042;-80
2023/01/06 12:56:04;;;;;;;7.05;1.77;;;10.20;99.90;;;;;;5036355;28;20126;-79
2023/01/06 12:58:30;;;;;;;5.75;1.58;;;9.80;99.90;;;;;;5019027;28;20041;-82
2023/01/06 13:01:06;;;;;;;6.63;1.80;;;9.90;99.90;;;;;;5036960;28;20045;-81
2023/01/06 13:04:01;;;;;;;4.88;1.35;;;9.90;99.90;;;;;;5036155;28;20401;-80
2023/01/06 13:06:46;;;;;;;6.97;1.63;;;10.00;99.90;;;;;;5036160;28;20041;-81
2023/01/06 13:09:28;;;;;;;6.07;1.88;;;10.00;99.90;;;;;;5018629;28;20049;-79
2023/01/06 13:12:19;;;;;;;7.18;1.42;;;9.90;99.90;;;;;;5036100;28;20433;-79